sensor_id;sensor_type;location;lat;lon;timestamp;pressure;altitude;pressure_sealevel;temperature
22322;BMP180;11328;53.928;18.522;2023-04-25T00:00:18;98956.00;;;14.00
22322;BMP180;11328;53.928;18.522;2023-04-25T00:02:46;98962.00;;;14.00
22322;BMP180;11328;53.928;18.522;2023-04-25T00:05:13;98958.00;;;14.00
22322;BMP180;11328;53.928;18.522;2023-04-25T00:07:42;98868.00;;;13.90
22322;BMP180;11328;53.928;18.522;2023-04-25T00:10:10;98932.00;;;13.90
22322;BMP180;11328;53.928;18.522;2023-04-25T00:12:40;98929.00;;;13.90
22322;BMP180;11328;53.928;18.522;2023-04-25T00:15:09;98935.00;;;13.90
22322;BMP180;11328;53.928;18.522;2023-04-25T00:17:36;98960.00;;;14.00
22322;BMP180;11328;53.928;18.522;2023-04-25T00:20:06;98958.00;;;14.10
22322;BMP180;11328;53.928;18.522;2023-04-25T00:22:35;98957.00;;;14.00
22322;BMP180;11328;53.928;18.522;2023-04-25T00:25:06;98947.00;;;13.90
22322;BMP180;11328;53.928;18.522;2023-04-25T00:27:33;98955.00;;;14.00
22322;BMP180;11328;53.928;18.522;2023-04-25T00:30:00;98954.00;;;13.90
22322;BMP180;11328;53.928;18.522;2023-04-25T00:32:27;98960.00;;;14.00
22322;BMP180;11328;53.928;18.522;2023-04-25T00:34:54;98950.00;;;14.00
22322;BMP180;11328;53.928;18.522;2023-04-25T00:37:22;98956.00;;;14.20
22322;BMP180;11328;53.928;18.522;2023-04-25T00:39:50;98957.00;;;14.20
22322;BMP180;11328;53.928;18.522;2023-04-25T00:42:17;98949.00;;;14.10
22322;BMP180;11328;53.928;18.522;2023-04-25T00:44:45;98953.00;;;14.00
22322;BMP180;11328;53.928;18.522;2023-04-25T00:47:13;98955.00;;;13.80
22322;BMP180;11328;53.928;18.522;2023-04-25T00:49:40;98958.00;;;13.80
22322;BMP180;11328;53.928;18.522;2023-04-25T00:52:06;98949.00;;;13.90
22322;BMP180;11328;53.928;18.522;2023-04-25T00:54:34;98949.00;;;13.80
22322;BMP180;11328;53.928;18.522;2023-04-25T00:57:01;98952.00;;;13.80
22322;BMP180;11328;53.928;18.522;2023-04-25T00:59:28;98957.00;;;13.70
22322;BMP180;11328;53.928;18.522;2023-04-25T01:01:56;98957.00;;;13.80
22322;BMP180;11328;53.928;18.522;2023-04-25T01:04:26;98950.00;;;13.90
22322;BMP180;11328;53.928;18.522;2023-04-25T01:06:54;98923.00;;;13.80
22322;BMP180;11328;53.928;18.522;2023-04-25T01:09:22;98945.00;;;13.70
22322;BMP180;11328;53.928;18.522;2023-04-25T01:11:50;98952.00;;;13.70
22322;BMP180;11328;53.928;18.522;2023-04-25T01:14:17;98952.00;;;13.70
22322;BMP180;11328;53.928;18.522;2023-04-25T01:16:44;98950.00;;;13.50
22322;BMP180;11328;53.928;18.522;2023-04-25T01:19:11;98947.00;;;13.60
22322;BMP180;11328;53.928;18.522;2023-04-25T01:21:41;98947.00;;;13.60
22322;BMP180;11328;53.928;18.522;2023-04-25T01:24:08;98945.00;;;13.60
22322;BMP180;11328;53.928;18.522;2023-04-25T01:26:36;98952.00;;;13.60
22322;BMP180;11328;53.928;18.522;2023-04-25T01:29:04;98961.00;;;13.50
22322;BMP180;11328;53.928;18.522;2023-04-25T01:31:32;98949.00;;;13.40
22322;BMP180;11328;53.928;18.522;2023-04-25T01:34:01;98948.00;;;13.40
22322;BMP180;11328;53.928;18.522;2023-04-25T01:36:28;98947.00;;;13.50
22322;BMP180;11328;53.928;18.522;2023-04-25T01:38:56;98956.00;;;13.50
22322;BMP180;11328;53.928;18.522;2023-04-25T01:41:23;98952.00;;;13.50
22322;BMP180;11328;53.928;18.522;2023-04-25T01:43:50;98953.00;;;13.50
22322;BMP180;11328;53.928;18.522;2023-04-25T01:46:17;98952.00;;;13.40
22322;BMP180;11328;53.928;18.522;2023-04-25T01:48:45;98958.00;;;13.40
22322;BMP180;11328;53.928;18.522;2023-04-25T01:51:12;98962.00;;;13.40
22322;BMP180;11328;53.928;18.522;2023-04-25T01:53:39;98965.00;;;13.40
22322;BMP180;11328;53.928;18.522;2023-04-25T01:56:09;98954.00;;;13.40
22322;BMP180;11328;53.928;18.522;2023-04-25T01:58:36;98965.00;;;13.40
22322;BMP180;11328;53.928;18.522;2023-04-25T02:01:03;98967.00;;;13.40
22322;BMP180;11328;53.928;18.522;2023-04-25T02:03:32;98950.00;;;13.40
22322;BMP180;11328;53.928;18.522;2023-04-25T02:05:59;98968.00;;;13.40
22322;BMP180;11328;53.928;18.522;2023-04-25T02:08:26;98976.00;;;13.50
22322;BMP180;11328;53.928;18.522;2023-04-25T02:10:53;98964.00;;;13.40
22322;BMP180;11328;53.928;18.522;2023-04-25T02:13:20;98966.00;;;13.30
22322;BMP180;11328;53.928;18.522;2023-04-25T02:15:47;98958.00;;;13.40
22322;BMP180;11328;53.928;18.522;2023-04-25T02:18:14;98952.00;;;13.40
22322;BMP180;11328;53.928;18.522;2023-04-25T02:20:44;98960.00;;;13.40
22322;BMP180;11328;53.928;18.522;2023-04-25T02:23:11;98968.00;;;13.30
22322;BMP180;11328;53.928;18.522;2023-04-25T02:25:38;98960.00;;;13.30
22322;BMP180;11328;53.928;18.522;2023-04-25T02:28:05;98966.00;;;13.30
22322;BMP180;11328;53.928;18.522;2023-04-25T02:30:31;98957.00;;;13.30
22322;BMP180;11328;53.928;18.522;2023-04-25T02:32:59;98955.00;;;13.20
22322;BMP180;11328;53.928;18.522;2023-04-25T02:35:26;98957.00;;;13.10
22322;BMP180;11328;53.928;18.522;2023-04-25T02:37:53;98959.00;;;13.20
22322;BMP180;11328;53.928;18.522;2023-04-25T02:40:20;98967.00;;;13.30
22322;BMP180;11328;53.928;18.522;2023-04-25T02:42:47;98959.00;;;13.20
22322;BMP180;11328;53.928;18.522;2023-04-25T02:45:14;98967.00;;;13.00
22322;BMP180;11328;53.928;18.522;2023-04-25T02:47:44;98961.00;;;13.00
22322;BMP180;11328;53.928;18.522;2023-04-25T02:50:11;98960.00;;;12.90
22322;BMP180;11328;53.928;18.522;2023-04-25T02:52:38;98952.00;;;12.80
22322;BMP180;11328;53.928;18.522;2023-04-25T02:55:05;98962.00;;;12.60
22322;BMP180;11328;53.928;18.522;2023-04-25T02:57:32;98957.00;;;12.40
22322;BMP180;11328;53.928;18.522;2023-04-25T03:00:00;98960.00;;;12.60
22322;BMP180;11328;53.928;18.522;2023-04-25T03:02:28;98963.00;;;12.50
22322;BMP180;11328;53.928;18.522;2023-04-25T03:04:55;98953.00;;;12.50
22322;BMP180;11328;53.928;18.522;2023-04-25T03:07:22;98952.00;;;12.30
22322;BMP180;11328;53.928;18.522;2023-04-25T03:09:49;98951.00;;;12.10
22322;BMP180;11328;53.928;18.522;2023-04-25T03:12:16;98953.00;;;12.10
22322;BMP180;11328;53.928;18.522;2023-04-25T03:14:43;98949.00;;;11.90
22322;BMP180;11328;53.928;18.522;2023-04-25T03:17:10;98953.00;;;11.90
22322;BMP180;11328;53.928;18.522;2023-04-25T03:19:37;98946.00;;;11.90
22322;BMP180;11328;53.928;18.522;2023-04-25T03:22:04;98948.00;;;11.80
22322;BMP180;11328;53.928;18.522;2023-04-25T03:24:31;98955.00;;;11.80
22322;BMP180;11328;53.928;18.522;2023-04-25T03:26:57;98950.00;;;11.80
22322;BMP180;11328;53.928;18.522;2023-04-25T03:29:27;98949.00;;;11.80
22322;BMP180;11328;53.928;18.522;2023-04-25T03:31:57;98941.00;;;11.70
22322;BMP180;11328;53.928;18.522;2023-04-25T03:34:24;98951.00;;;11.60
22322;BMP180;11328;53.928;18.522;2023-04-25T03:36:52;98949.00;;;11.60
22322;BMP180;11328;53.928;18.522;2023-04-25T03:39:19;98961.00;;;11.60
22322;BMP180;11328;53.928;18.522;2023-04-25T03:41:46;98963.00;;;11.60
22322;BMP180;11328;53.928;18.522;2023-04-25T03:44:14;98954.00;;;11.70
22322;BMP180;11328;53.928;18.522;2023-04-25T03:46:41;98963.00;;;11.70
22322;BMP180;11328;53.928;18.522;2023-04-25T03:49:08;98965.00;;;11.70
22322;BMP180;11328;53.928;18.522;2023-04-25T03:51:35;98965.00;;;11.70
22322;BMP180;11328;53.928;18.522;2023-04-25T03:54:01;98968.00;;;11.70
22322;BMP180;11328;53.928;18.522;2023-04-25T03:56:29;98977.00;;;11.70
22322;BMP180;11328;53.928;18.522;2023-04-25T03:58:56;98967.00;;;11.70
22322;BMP180;11328;53.928;18.522;2023-04-25T04:01:23;98969.00;;;11.70
22322;BMP180;11328;53.928;18.522;2023-04-25T04:03:50;98973.00;;;11.90
22322;BMP180;11328;53.928;18.522;2023-04-25T04:06:17;98977.00;;;11.90
22322;BMP180;11328;53.928;18.522;2023-04-25T04:08:44;98981.00;;;11.90
22322;BMP180;11328;53.928;18.522;2023-04-25T04:11:11;98984.00;;;11.80
22322;BMP180;11328;53.928;18.522;2023-04-25T04:13:38;98983.00;;;11.80
22322;BMP180;11328;53.928;18.522;2023-04-25T04:16:05;98982.00;;;11.80
22322;BMP180;11328;53.928;18.522;2023-04-25T04:18:32;98983.00;;;11.70
22322;BMP180;11328;53.928;18.522;2023-04-25T04:21:00;98991.00;;;11.70
22322;BMP180;11328;53.928;18.522;2023-04-25T04:23:27;98988.00;;;11.60
22322;BMP180;11328;53.928;18.522;2023-04-25T04:25:55;98967.00;;;11.80
22322;BMP180;11328;53.928;18.522;2023-04-25T04:28:22;98989.00;;;11.90
22322;BMP180;11328;53.928;18.522;2023-04-25T04:30:52;98995.00;;;11.90
22322;BMP180;11328;53.928;18.522;2023-04-25T04:33:19;98994.00;;;11.80
22322;BMP180;11328;53.928;18.522;2023-04-25T04:35:47;98996.00;;;11.80
22322;BMP180;11328;53.928;18.522;2023-04-25T04:38:14;99004.00;;;11.70
22322;BMP180;11328;53.928;18.522;2023-04-25T04:40:45;99003.00;;;11.80
22322;BMP180;11328;53.928;18.522;2023-04-25T04:43:12;99013.00;;;11.60
22322;BMP180;11328;53.928;18.522;2023-04-25T04:45:40;99009.00;;;11.50
22322;BMP180;11328;53.928;18.522;2023-04-25T04:48:07;99012.00;;;11.40
22322;BMP180;11328;53.928;18.522;2023-04-25T04:50:35;99011.00;;;11.40
22322;BMP180;11328;53.928;18.522;2023-04-25T04:53:04;99014.00;;;11.40
22322;BMP180;11328;53.928;18.522;2023-04-25T04:55:31;99012.00;;;11.40
22322;BMP180;11328;53.928;18.522;2023-04-25T04:57:58;99015.00;;;11.50
22322;BMP180;11328;53.928;18.522;2023-04-25T05:00:25;99018.00;;;11.50
22322;BMP180;11328;53.928;18.522;2023-04-25T05:02:56;99013.00;;;11.30
22322;BMP180;11328;53.928;18.522;2023-04-25T05:05:25;99003.00;;;11.30
22322;BMP180;11328;53.928;18.522;2023-04-25T05:07:52;99029.00;;;11.30
22322;BMP180;11328;53.928;18.522;2023-04-25T05:10:19;99024.00;;;11.30
22322;BMP180;11328;53.928;18.522;2023-04-25T05:12:47;99024.00;;;11.30
22322;BMP180;11328;53.928;18.522;2023-04-25T05:15:14;99026.00;;;11.30
22322;BMP180;11328;53.928;18.522;2023-04-25T05:17:41;99029.00;;;11.20
22322;BMP180;11328;53.928;18.522;2023-04-25T05:20:08;99028.00;;;11.20
22322;BMP180;11328;53.928;18.522;2023-04-25T05:22:36;99034.00;;;11.20
22322;BMP180;11328;53.928;18.522;2023-04-25T05:25:03;99029.00;;;11.20
22322;BMP180;11328;53.928;18.522;2023-04-25T05:27:30;99033.00;;;11.10
22322;BMP180;11328;53.928;18.522;2023-04-25T05:29:57;99030.00;;;11.10
22322;BMP180;11328;53.928;18.522;2023-04-25T05:32:24;99030.00;;;11.20
22322;BMP180;11328;53.928;18.522;2023-04-25T05:34:52;99032.00;;;11.30
22322;BMP180;11328;53.928;18.522;2023-04-25T05:37:19;99036.00;;;11.20
22322;BMP180;11328;53.928;18.522;2023-04-25T05:39:49;99041.00;;;11.20
22322;BMP180;11328;53.928;18.522;2023-04-25T05:42:16;99050.00;;;11.10
22322;BMP180;11328;53.928;18.522;2023-04-25T05:44:43;99051.00;;;11.10
22322;BMP180;11328;53.928;18.522;2023-04-25T05:47:10;99042.00;;;11.10
22322;BMP180;11328;53.928;18.522;2023-04-25T05:49:36;99054.00;;;11.10
22322;BMP180;11328;53.928;18.522;2023-04-25T05:52:04;99051.00;;;11.10
22322;BMP180;11328;53.928;18.522;2023-04-25T05:54:33;99059.00;;;11.00
22322;BMP180;11328;53.928;18.522;2023-04-25T05:57:00;99054.00;;;10.90
22322;BMP180;11328;53.928;18.522;2023-04-25T05:59:29;99050.00;;;10.90
22322;BMP180;11328;53.928;18.522;2023-04-25T06:01:56;99055.00;;;10.90
22322;BMP180;11328;53.928;18.522;2023-04-25T06:04:23;99051.00;;;10.90
22322;BMP180;11328;53.928;18.522;2023-04-25T06:06:50;99052.00;;;11.00
22322;BMP180;11328;53.928;18.522;2023-04-25T06:09:17;99054.00;;;10.80
22322;BMP180;11328;53.928;18.522;2023-04-25T06:11:44;99062.00;;;10.70
22322;BMP180;11328;53.928;18.522;2023-04-25T06:14:11;99060.00;;;10.80
22322;BMP180;11328;53.928;18.522;2023-04-25T06:16:38;99049.00;;;10.90
22322;BMP180;11328;53.928;18.522;2023-04-25T06:19:05;99063.00;;;10.90
22322;BMP180;11328;53.928;18.522;2023-04-25T06:21:32;99057.00;;;10.80
22322;BMP180;11328;53.928;18.522;2023-04-25T06:23:59;99068.00;;;11.00
22322;BMP180;11328;53.928;18.522;2023-04-25T06:26:26;99071.00;;;11.00
22322;BMP180;11328;53.928;18.522;2023-04-25T06:28:52;99071.00;;;11.00
22322;BMP180;11328;53.928;18.522;2023-04-25T06:31:19;99069.00;;;11.10
22322;BMP180;11328;53.928;18.522;2023-04-25T06:33:46;99062.00;;;11.10
22322;BMP180;11328;53.928;18.522;2023-04-25T06:36:15;99065.00;;;11.20
22322;BMP180;11328;53.928;18.522;2023-04-25T06:38:42;99064.00;;;11.20
22322;BMP180;11328;53.928;18.522;2023-04-25T06:41:10;99063.00;;;11.10
22322;BMP180;11328;53.928;18.522;2023-04-25T06:43:37;99069.00;;;11.00
22322;BMP180;11328;53.928;18.522;2023-04-25T06:46:04;99061.00;;;11.10
22322;BMP180;11328;53.928;18.522;2023-04-25T06:48:31;99075.00;;;10.90
22322;BMP180;11328;53.928;18.522;2023-04-25T06:50:58;99071.00;;;10.90
22322;BMP180;11328;53.928;18.522;2023-04-25T06:53:25;99068.00;;;11.00
22322;BMP180;11328;53.928;18.522;2023-04-25T06:55:52;99074.00;;;11.10
22322;BMP180;11328;53.928;18.522;2023-04-25T06:58:19;99069.00;;;11.10
22322;BMP180;11328;53.928;18.522;2023-04-25T07:00:46;99078.00;;;11.20
22322;BMP180;11328;53.928;18.522;2023-04-25T07:03:13;99066.00;;;11.20
22322;BMP180;11328;53.928;18.522;2023-04-25T07:05:40;99074.00;;;11.20
22322;BMP180;11328;53.928;18.522;2023-04-25T07:08:07;99081.00;;;11.10
22322;BMP180;11328;53.928;18.522;2023-04-25T07:10:34;99078.00;;;11.40
22322;BMP180;11328;53.928;18.522;2023-04-25T07:13:01;99086.00;;;11.40
22322;BMP180;11328;53.928;18.522;2023-04-25T07:15:28;99086.00;;;11.40
22322;BMP180;11328;53.928;18.522;2023-04-25T07:17:58;99085.00;;;11.30
22322;BMP180;11328;53.928;18.522;2023-04-25T07:20:26;99083.00;;;11.30
22322;BMP180;11328;53.928;18.522;2023-04-25T07:22:54;99086.00;;;11.30
22322;BMP180;11328;53.928;18.522;2023-04-25T07:25:22;99092.00;;;11.40
22322;BMP180;11328;53.928;18.522;2023-04-25T07:27:49;99093.00;;;11.70
22322;BMP180;11328;53.928;18.522;2023-04-25T07:30:19;99095.00;;;11.60
22322;BMP180;11328;53.928;18.522;2023-04-25T07:32:46;99103.00;;;11.60
22322;BMP180;11328;53.928;18.522;2023-04-25T07:35:13;99103.00;;;11.60
22322;BMP180;11328;53.928;18.522;2023-04-25T07:37:40;99105.00;;;11.70
22322;BMP180;11328;53.928;18.522;2023-04-25T07:40:08;99101.00;;;11.50
22322;BMP180;11328;53.928;18.522;2023-04-25T07:42:36;99113.00;;;11.50
22322;BMP180;11328;53.928;18.522;2023-04-25T07:45:03;99114.00;;;11.50
22322;BMP180;11328;53.928;18.522;2023-04-25T07:47:30;99118.00;;;11.50
22322;BMP180;11328;53.928;18.522;2023-04-25T07:49:57;99119.00;;;11.80
22322;BMP180;11328;53.928;18.522;2023-04-25T07:52:24;99125.00;;;11.90
22322;BMP180;11328;53.928;18.522;2023-04-25T07:54:51;99122.00;;;11.90
22322;BMP180;11328;53.928;18.522;2023-04-25T07:57:19;99120.00;;;12.10
22322;BMP180;11328;53.928;18.522;2023-04-25T07:59:46;99131.00;;;12.20
22322;BMP180;11328;53.928;18.522;2023-04-25T08:02:13;99143.00;;;12.30
22322;BMP180;11328;53.928;18.522;2023-04-25T08:04:40;99135.00;;;12.60
22322;BMP180;11328;53.928;18.522;2023-04-25T08:07:07;99138.00;;;12.60
22322;BMP180;11328;53.928;18.522;2023-04-25T08:09:35;99115.00;;;12.60
22322;BMP180;11328;53.928;18.522;2023-04-25T08:12:04;99127.00;;;12.50
22322;BMP180;11328;53.928;18.522;2023-04-25T08:14:31;99142.00;;;12.40
22322;BMP180;11328;53.928;18.522;2023-04-25T08:17:03;99144.00;;;12.40
22322;BMP180;11328;53.928;18.522;2023-04-25T08:19:31;99138.00;;;12.70
22322;BMP180;11328;53.928;18.522;2023-04-25T08:21:58;99151.00;;;13.00
22322;BMP180;11328;53.928;18.522;2023-04-25T08:24:25;99142.00;;;12.90
22322;BMP180;11328;53.928;18.522;2023-04-25T08:26:52;99157.00;;;13.40
22322;BMP180;11328;53.928;18.522;2023-04-25T08:29:20;99152.00;;;13.60
22322;BMP180;11328;53.928;18.522;2023-04-25T08:31:47;99145.00;;;14.00
22322;BMP180;11328;53.928;18.522;2023-04-25T08:34:15;99149.00;;;14.30
22322;BMP180;11328;53.928;18.522;2023-04-25T08:36:41;99163.00;;;14.40
22322;BMP180;11328;53.928;18.522;2023-04-25T08:39:08;99167.00;;;14.20
22322;BMP180;11328;53.928;18.522;2023-04-25T08:41:37;99158.00;;;13.90
22322;BMP180;11328;53.928;18.522;2023-04-25T08:44:06;99160.00;;;13.80
22322;BMP180;11328;53.928;18.522;2023-04-25T08:46:34;99159.00;;;13.80
22322;BMP180;11328;53.928;18.522;2023-04-25T08:49:01;99161.00;;;13.90
22322;BMP180;11328;53.928;18.522;2023-04-25T08:51:32;99171.00;;;13.80
22322;BMP180;11328;53.928;18.522;2023-04-25T08:54:11;99168.00;;;13.40
22322;BMP180;11328;53.928;18.522;2023-04-25T08:56:47;99169.00;;;13.30
22322;BMP180;11328;53.928;18.522;2023-04-25T08:59:14;99172.00;;;13.20
22322;BMP180;11328;53.928;18.522;2023-04-25T09:01:41;99174.00;;;13.40
22322;BMP180;11328;53.928;18.522;2023-04-25T09:04:11;99179.00;;;13.40
22322;BMP180;11328;53.928;18.522;2023-04-25T09:06:39;99186.00;;;13.70
22322;BMP180;11328;53.928;18.522;2023-04-25T09:09:08;99180.00;;;13.70
22322;BMP180;11328;53.928;18.522;2023-04-25T09:11:37;99183.00;;;13.40
22322;BMP180;11328;53.928;18.522;2023-04-25T09:14:17;99188.00;;;13.50
22322;BMP180;11328;53.928;18.522;2023-04-25T09:16:57;99187.00;;;13.40
22322;BMP180;11328;53.928;18.522;2023-04-25T09:22:07;99200.00;;;13.60
22322;BMP180;11328;53.928;18.522;2023-04-25T09:24:44;99203.00;;;13.50
22322;BMP180;11328;53.928;18.522;2023-04-25T09:27:19;99209.00;;;13.60
22322;BMP180;11328;53.928;18.522;2023-04-25T09:29:47;99204.00;;;13.60
22322;BMP180;11328;53.928;18.522;2023-04-25T09:32:20;99206.00;;;13.50
22322;BMP180;11328;53.928;18.522;2023-04-25T09:34:57;99213.00;;;13.50
22322;BMP180;11328;53.928;18.522;2023-04-25T09:37:30;99209.00;;;13.70
22322;BMP180;11328;53.928;18.522;2023-04-25T09:39:59;99210.00;;;13.50
22322;BMP180;11328;53.928;18.522;2023-04-25T09:42:29;99211.00;;;13.60
22322;BMP180;11328;53.928;18.522;2023-04-25T09:45:00;99213.00;;;13.80
22322;BMP180;11328;53.928;18.522;2023-04-25T09:47:28;99219.00;;;13.90
22322;BMP180;11328;53.928;18.522;2023-04-25T09:49:56;99217.00;;;13.90
22322;BMP180;11328;53.928;18.522;2023-04-25T09:52:24;99214.00;;;13.80
22322;BMP180;11328;53.928;18.522;2023-04-25T09:54:52;99209.00;;;14.10
22322;BMP180;11328;53.928;18.522;2023-04-25T09:57:24;99227.00;;;14.20
22322;BMP180;11328;53.928;18.522;2023-04-25T09:59:53;99224.00;;;14.20
22322;BMP180;11328;53.928;18.522;2023-04-25T10:02:23;99233.00;;;14.10
22322;BMP180;11328;53.928;18.522;2023-04-25T10:04:54;99243.00;;;14.00
22322;BMP180;11328;53.928;18.522;2023-04-25T10:07:26;99239.00;;;13.80
22322;BMP180;11328;53.928;18.522;2023-04-25T10:10:01;99238.00;;;13.50
22322;BMP180;11328;53.928;18.522;2023-04-25T10:12:33;99242.00;;;13.40
22322;BMP180;11328;53.928;18.522;2023-04-25T10:15:02;99239.00;;;13.30
22322;BMP180;11328;53.928;18.522;2023-04-25T10:17:31;99244.00;;;13.10
22322;BMP180;11328;53.928;18.522;2023-04-25T10:20:01;99251.00;;;12.90
22322;BMP180;11328;53.928;18.522;2023-04-25T10:22:39;99252.00;;;13.00
22322;BMP180;11328;53.928;18.522;2023-04-25T10:25:08;99251.00;;;12.90
22322;BMP180;11328;53.928;18.522;2023-04-25T10:27:36;99261.00;;;12.80
22322;BMP180;11328;53.928;18.522;2023-04-25T10:30:08;99260.00;;;12.70
22322;BMP180;11328;53.928;18.522;2023-04-25T10:32:41;99252.00;;;12.80
22322;BMP180;11328;53.928;18.522;2023-04-25T10:35:17;99261.00;;;12.80
22322;BMP180;11328;53.928;18.522;2023-04-25T10:38:04;99260.00;;;12.70
22322;BMP180;11328;53.928;18.522;2023-04-25T10:40:34;99255.00;;;12.80
22322;BMP180;11328;53.928;18.522;2023-04-25T10:43:42;99265.00;;;12.80
22322;BMP180;11328;53.928;18.522;2023-04-25T10:46:28;99263.00;;;12.70
22322;BMP180;11328;53.928;18.522;2023-04-25T10:49:02;99270.00;;;12.60
22322;BMP180;11328;53.928;18.522;2023-04-25T10:51:33;99264.00;;;12.70
22322;BMP180;11328;53.928;18.522;2023-04-25T10:54:23;99252.00;;;12.50
22322;BMP180;11328;53.928;18.522;2023-04-25T10:56:52;99266.00;;;12.40
22322;BMP180;11328;53.928;18.522;2023-04-25T10:59:20;99270.00;;;12.30
22322;BMP180;11328;53.928;18.522;2023-04-25T11:01:52;99271.00;;;12.40
22322;BMP180;11328;53.928;18.522;2023-04-25T11:04:30;99269.00;;;12.50
22322;BMP180;11328;53.928;18.522;2023-04-25T11:09:35;99266.00;;;12.50
22322;BMP180;11328;53.928;18.522;2023-04-25T11:12:02;99269.00;;;12.50
22322;BMP180;11328;53.928;18.522;2023-04-25T11:14:29;99273.00;;;12.50
22322;BMP180;11328;53.928;18.522;2023-04-25T11:16:58;99278.00;;;12.50
22322;BMP180;11328;53.928;18.522;2023-04-25T11:19:30;99268.00;;;12.40
22322;BMP180;11328;53.928;18.522;2023-04-25T11:22:02;99285.00;;;12.50
22322;BMP180;11328;53.928;18.522;2023-04-25T11:24:34;99277.00;;;12.70
22322;BMP180;11328;53.928;18.522;2023-04-25T11:27:03;99286.00;;;12.80
22322;BMP180;11328;53.928;18.522;2023-04-25T11:29:34;99286.00;;;12.90
22322;BMP180;11328;53.928;18.522;2023-04-25T11:32:02;99286.00;;;12.70
22322;BMP180;11328;53.928;18.522;2023-04-25T11:34:31;99289.00;;;12.60
22322;BMP180;11328;53.928;18.522;2023-04-25T11:37:01;99289.00;;;12.70
22322;BMP180;11328;53.928;18.522;2023-04-25T11:39:29;99289.00;;;13.00
22322;BMP180;11328;53.928;18.522;2023-04-25T11:41:57;99279.00;;;13.20
22322;BMP180;11328;53.928;18.522;2023-04-25T11:44:25;99277.00;;;13.20
22322;BMP180;11328;53.928;18.522;2023-04-25T11:46:52;99289.00;;;13.20
22322;BMP180;11328;53.928;18.522;2023-04-25T11:49:19;99291.00;;;13.20
22322;BMP180;11328;53.928;18.522;2023-04-25T11:51:48;99297.00;;;13.20
22322;BMP180;11328;53.928;18.522;2023-04-25T11:54:15;99283.00;;;13.10
22322;BMP180;11328;53.928;18.522;2023-04-25T11:56:44;99289.00;;;13.10
22322;BMP180;11328;53.928;18.522;2023-04-25T11:59:12;99289.00;;;13.30
22322;BMP180;11328;53.928;18.522;2023-04-25T12:01:48;99270.00;;;13.30
22322;BMP180;11328;53.928;18.522;2023-04-25T12:04:21;99296.00;;;13.40
22322;BMP180;11328;53.928;18.522;2023-04-25T12:06:52;99286.00;;;13.60
22322;BMP180;11328;53.928;18.522;2023-04-25T12:09:28;99292.00;;;13.90
22322;BMP180;11328;53.928;18.522;2023-04-25T12:11:57;99293.00;;;14.00
22322;BMP180;11328;53.928;18.522;2023-04-25T12:14:34;99290.00;;;14.30
22322;BMP180;11328;53.928;18.522;2023-04-25T12:17:03;99291.00;;;14.40
22322;BMP180;11328;53.928;18.522;2023-04-25T12:19:35;99298.00;;;14.70
22322;BMP180;11328;53.928;18.522;2023-04-25T12:22:10;99297.00;;;14.90
22322;BMP180;11328;53.928;18.522;2023-04-25T12:24:45;99296.00;;;15.00
22322;BMP180;11328;53.928;18.522;2023-04-25T12:27:15;99290.00;;;14.80
22322;BMP180;11328;53.928;18.522;2023-04-25T12:29:54;99293.00;;;14.90
22322;BMP180;11328;53.928;18.522;2023-04-25T12:32:23;99289.00;;;15.10
22322;BMP180;11328;53.928;18.522;2023-04-25T12:34:50;99295.00;;;15.10
22322;BMP180;11328;53.928;18.522;2023-04-25T12:37:17;99297.00;;;15.10
22322;BMP180;11328;53.928;18.522;2023-04-25T12:39:44;99295.00;;;15.00
22322;BMP180;11328;53.928;18.522;2023-04-25T12:42:12;99284.00;;;15.20
22322;BMP180;11328;53.928;18.522;2023-04-25T12:44:39;99298.00;;;15.30
22322;BMP180;11328;53.928;18.522;2023-04-25T12:47:07;99291.00;;;15.20
22322;BMP180;11328;53.928;18.522;2023-04-25T12:49:34;99293.00;;;15.40
22322;BMP180;11328;53.928;18.522;2023-04-25T12:52:02;99289.00;;;15.30
22322;BMP180;11328;53.928;18.522;2023-04-25T12:54:29;99294.00;;;15.10
22322;BMP180;11328;53.928;18.522;2023-04-25T12:56:56;99308.00;;;14.70
22322;BMP180;11328;53.928;18.522;2023-04-25T12:59:23;99318.00;;;13.90
22322;BMP180;11328;53.928;18.522;2023-04-25T13:01:51;99323.00;;;13.50
22322;BMP180;11328;53.928;18.522;2023-04-25T13:04:18;99322.00;;;13.10
22322;BMP180;11328;53.928;18.522;2023-04-25T13:06:48;99328.00;;;13.00
22322;BMP180;11328;53.928;18.522;2023-04-25T13:09:18;99326.00;;;12.80
22322;BMP180;11328;53.928;18.522;2023-04-25T13:11:45;99322.00;;;12.50
22322;BMP180;11328;53.928;18.522;2023-04-25T13:14:12;99319.00;;;12.50
22322;BMP180;11328;53.928;18.522;2023-04-25T13:16:40;99315.00;;;12.60
22322;BMP180;11328;53.928;18.522;2023-04-25T13:19:08;99313.00;;;12.70
22322;BMP180;11328;53.928;18.522;2023-04-25T13:21:37;99297.00;;;12.60
22322;BMP180;11328;53.928;18.522;2023-04-25T13:24:05;99305.00;;;12.40
22322;BMP180;11328;53.928;18.522;2023-04-25T13:26:32;99298.00;;;12.50
22322;BMP180;11328;53.928;18.522;2023-04-25T13:28:59;99296.00;;;12.60
22322;BMP180;11328;53.928;18.522;2023-04-25T13:31:27;99305.00;;;13.00
22322;BMP180;11328;53.928;18.522;2023-04-25T13:33:54;99298.00;;;13.20
22322;BMP180;11328;53.928;18.522;2023-04-25T13:36:21;99298.00;;;13.30
22322;BMP180;11328;53.928;18.522;2023-04-25T13:38:48;99295.00;;;13.40
22322;BMP180;11328;53.928;18.522;2023-04-25T13:41:16;99295.00;;;13.30
22322;BMP180;11328;53.928;18.522;2023-04-25T13:43:46;99308.00;;;13.40
22322;BMP180;11328;53.928;18.522;2023-04-25T13:46:15;99298.00;;;13.40
22322;BMP180;11328;53.928;18.522;2023-04-25T13:49:03;99306.00;;;13.50
22322;BMP180;11328;53.928;18.522;2023-04-25T13:51:39;99304.00;;;13.50
22322;BMP180;11328;53.928;18.522;2023-04-25T13:54:06;99299.00;;;13.70
22322;BMP180;11328;53.928;18.522;2023-04-25T13:56:34;99304.00;;;13.90
22322;BMP180;11328;53.928;18.522;2023-04-25T13:59:02;99304.00;;;14.00
22322;BMP180;11328;53.928;18.522;2023-04-25T14:01:29;99299.00;;;14.30
22322;BMP180;11328;53.928;18.522;2023-04-25T14:04:02;99307.00;;;14.40
22322;BMP180;11328;53.928;18.522;2023-04-25T14:06:32;99299.00;;;14.50
22322;BMP180;11328;53.928;18.522;2023-04-25T14:08:59;99306.00;;;14.50